createdAt,value
2023-04-10T00:02:55.347Z,61.34
2023-04-10T00:07:58.347Z,66.89
2023-04-10T00:13:03.615Z,64.25
2023-04-10T00:18:06.628Z,60.65
2023-04-10T00:23:09.861Z,57.84
2023-04-10T00:28:12.826Z,60.76
2023-04-10T00:33:16.044Z,67.79
2023-04-10T00:38:19.048Z,64.93
2023-04-10T00:43:22.363Z,60.84
2023-04-10T00:48:26.361Z,57.83
2023-04-10T00:53:30.043Z,61.62
2023-04-10T00:58:33.018Z,67.55
2023-04-10T01:03:37.349Z,64.53
2023-04-10T01:09:06.406Z,58.75
2023-04-10T01:14:09.274Z,59.46
2023-04-10T01:19:12.285Z,65.30
2023-04-10T01:24:24.989Z,68.40
2023-04-10T01:29:31.060Z,63.64
2023-04-10T01:34:45.151Z,60.38
2023-04-10T01:39:54.584Z,58.11
2023-04-10T01:44:58.769Z,62.94
2023-04-10T01:50:03.707Z,66.53
2023-04-10T01:55:08.839Z,61.60
2023-04-10T02:00:12.962Z,57.63
2023-04-10T02:05:16.988Z,61.59
2023-04-10T02:10:31.655Z,67.89
2023-04-10T02:15:36.630Z,62.82
2023-04-10T02:20:39.671Z,58.95
2023-04-10T02:25:42.581Z,59.80
2023-04-10T02:30:45.778Z,66.58
2023-04-10T02:35:48.819Z,64.53
2023-04-10T02:40:51.788Z,60.50
2023-04-10T02:45:55.110Z,57.69
2023-04-10T02:50:58.722Z,60.91
2023-04-10T02:56:02.638Z,67.04
2023-04-10T03:01:09.345Z,62.67
2023-04-10T03:06:12.462Z,57.96
2023-04-10T03:11:15.563Z,60.95
2023-04-10T03:16:19.076Z,67.67
2023-04-10T03:21:22.297Z,64.19
2023-04-10T03:26:25.608Z,59.01
2023-04-10T03:31:29.752Z,58.59
2023-04-10T03:36:32.748Z,65.88
2023-04-10T03:41:35.649Z,62.85
2023-04-10T03:46:38.632Z,59.68
2023-04-10T03:51:41.564Z,57.57
2023-04-10T03:56:44.463Z,64.71
2023-04-10T04:01:47.438Z,63.06
2023-04-10T04:06:50.474Z,59.91
2023-04-10T04:11:53.381Z,58.61
2023-04-10T04:16:56.346Z,65.01
2023-04-10T04:22:00.596Z,61.58
2023-04-10T04:27:03.833Z,55.18
2023-04-10T04:32:06.766Z,56.46
2023-04-10T04:37:09.761Z,59.09
2023-04-10T04:42:12.955Z,61.51
2023-04-10T04:47:15.860Z,56.95
2023-04-10T04:52:18.764Z,58.14
2023-04-10T04:57:21.877Z,58.56
2023-04-10T05:02:25.088Z,57.98
2023-04-10T05:07:28.088Z,56.17
2023-04-10T05:12:31.402Z,54.15
2023-04-10T05:17:34.480Z,53.68
2023-04-10T05:22:37.515Z,52.22
2023-04-10T05:27:40.527Z,50.48
2023-04-10T05:32:43.498Z,48.60
2023-04-10T05:37:46.437Z,47.71
2023-04-10T05:42:49.344Z,46.45
2023-04-10T05:47:52.367Z,44.56
2023-04-10T05:52:55.439Z,43.97
2023-04-10T05:57:58.469Z,42.51
2023-04-10T06:03:01.837Z,40.81
2023-04-10T06:08:05.194Z,40.14
2023-04-10T06:13:10.577Z,39.16
2023-04-10T06:18:14.171Z,38.04
2023-04-10T06:23:17.286Z,36.80
2023-04-10T06:28:20.409Z,36.69
2023-04-10T06:33:26.164Z,36.62
2023-04-10T06:38:29.753Z,36.35
2023-04-10T06:43:36.953Z,35.50
2023-04-10T06:48:39.922Z,34.75
2023-04-10T06:53:43.017Z,34.28
2023-04-10T06:58:46.121Z,33.86
2023-04-10T07:03:49.082Z,32.60
2023-04-10T07:08:52.304Z,32.19
2023-04-10T07:13:58.683Z,32.42
2023-04-10T07:19:01.744Z,31.56
2023-04-10T07:24:04.758Z,30.81
2023-04-10T07:29:08.044Z,30.46
2023-04-10T07:34:12.114Z,28.15
2023-04-10T07:39:15.093Z,27.03
2023-04-10T07:44:18.772Z,26.10
2023-04-10T07:49:21.919Z,26.14
2023-04-10T07:54:24.938Z,27.13
2023-04-10T07:59:29.055Z,28.26
2023-04-10T08:04:32.425Z,26.59
2023-04-10T08:09:35.995Z,27.40
2023-04-10T08:14:38.991Z,26.87
2023-04-10T08:19:43.378Z,26.17
2023-04-10T08:24:46.545Z,26.20
2023-04-10T08:29:52.153Z,26.11
2023-04-10T08:34:56.690Z,24.60
2023-04-10T08:40:04.706Z,25.53
2023-04-10T08:45:11.453Z,28.74
2023-04-10T08:50:18.066Z,32.30
2023-04-10T08:55:21.989Z,35.12
2023-04-10T09:00:26.081Z,38.01
2023-04-10T09:05:30.372Z,40.65
2023-04-10T09:10:33.362Z,42.49
2023-04-10T09:15:55.690Z,42.97
2023-04-10T09:21:07.303Z,44.14
2023-04-10T09:26:23.088Z,44.60
2023-04-10T09:31:29.790Z,46.47
2023-04-10T09:36:32.960Z,46.31
2023-04-10T09:41:48.026Z,47.03
2023-04-10T09:46:51.589Z,48.30
2023-04-10T09:51:54.653Z,48.71
2023-04-10T09:56:58.658Z,48.53
2023-04-10T10:02:02.737Z,49.55
2023-04-10T10:07:06.447Z,49.49
2023-04-10T10:12:11.878Z,48.89
2023-04-10T10:17:18.641Z,48.95
2023-04-10T10:22:25.918Z,49.48
2023-04-10T10:27:35.190Z,49.17
2023-04-10T10:32:38.406Z,49.09
2023-04-10T10:37:42.925Z,48.87
2023-04-10T10:43:01.932Z,49.35
2023-04-10T10:48:05.050Z,49.61
2023-04-10T10:53:08.144Z,49.23
2023-04-10T10:58:11.760Z,48.13
2023-04-10T11:03:14.811Z,47.93
2023-04-10T11:08:18.639Z,46.86
2023-04-10T11:13:21.990Z,46.65
2023-04-10T11:18:51.156Z,46.62
2023-04-10T11:23:59.572Z,46.14
2023-04-10T11:29:03.467Z,44.78
2023-04-10T11:34:15.896Z,45.74
2023-04-10T11:39:20.545Z,46.31
2023-04-10T11:44:39.727Z,45.49
2023-04-10T11:49:42.936Z,45.50
2023-04-10T11:54:49.523Z,45.81
2023-04-10T11:59:52.631Z,45.94
2023-04-10T12:04:59.568Z,46.27
2023-04-10T12:10:02.665Z,46.63
2023-04-10T12:15:29.141Z,46.76
2023-04-10T12:20:32.306Z,46.20
2023-04-10T12:25:35.725Z,46.75
2023-04-10T12:30:45.999Z,46.24
2023-04-10T12:35:48.937Z,45.08
2023-04-10T12:40:59.376Z,43.44
2023-04-10T12:46:03.558Z,43.34
2023-04-10T12:51:07.252Z,44.52
2023-04-10T12:56:10.253Z,43.92
2023-04-10T13:01:14.953Z,42.57
2023-04-10T13:06:18.323Z,42.75
2023-04-10T13:11:22.857Z,43.34
2023-04-10T13:16:26.113Z,43.14
2023-04-10T13:21:29.792Z,42.77
2023-04-10T13:26:32.798Z,42.84
2023-04-10T13:31:35.956Z,42.48
2023-04-10T13:36:39.285Z,41.68
2023-04-10T13:41:42.326Z,41.98
2023-04-10T13:46:45.455Z,41.98
2023-04-10T13:51:48.583Z,41.86
2023-04-10T13:56:51.663Z,41.43
2023-04-10T14:01:54.663Z,41.55
2023-04-10T14:07:00.641Z,40.30
2023-04-10T14:12:03.854Z,40.84
2023-04-10T14:17:06.961Z,38.94
2023-04-10T14:22:09.867Z,39.49
2023-04-10T14:27:13.604Z,38.56
2023-04-10T14:32:16.726Z,39.78
2023-04-10T14:37:19.804Z,40.23
2023-04-10T14:42:23.908Z,41.04
2023-04-10T14:47:27.084Z,41.70
2023-04-10T14:52:30.254Z,41.45
2023-04-10T14:57:33.160Z,41.91
2023-04-10T15:02:36.274Z,41.13
2023-04-10T15:07:39.589Z,39.79
2023-04-10T15:12:43.012Z,39.51
2023-04-10T15:17:46.176Z,39.35
2023-04-10T15:22:49.112Z,39.78
2023-04-10T15:27:52.023Z,39.51
2023-04-10T15:32:55.049Z,38.76
2023-04-10T15:37:58.240Z,39.62
2023-04-10T15:43:01.244Z,39.64
2023-04-10T15:48:05.230Z,38.66
2023-04-10T15:53:08.275Z,38.93
2023-04-10T15:58:11.390Z,39.68
2023-04-10T16:03:14.674Z,40.38
2023-04-10T16:08:18.016Z,40.27
2023-04-10T16:13:21.134Z,39.48
2023-04-10T16:18:24.349Z,39.97
2023-04-10T16:23:27.342Z,40.95
2023-04-10T16:28:30.252Z,42.02
2023-04-10T16:33:33.352Z,42.32
2023-04-10T16:38:36.459Z,42.72
2023-04-10T16:43:39.671Z,43.65
2023-04-10T16:48:42.576Z,44.63
2023-04-10T16:53:45.582Z,45.44
2023-04-10T16:58:48.740Z,46.29
2023-04-10T17:03:52.060Z,46.62
2023-04-10T17:08:55.351Z,47.45
2023-04-10T17:13:58.549Z,48.47
2023-04-10T17:19:01.755Z,49.27
2023-04-10T17:24:04.871Z,50.12
2023-04-10T17:29:07.978Z,51.14
2023-04-10T17:34:11.086Z,50.97
2023-04-10T17:39:14.077Z,51.98
2023-04-10T17:44:17.062Z,53.10
2023-04-10T17:49:21.919Z,54.97
2023-04-10T17:54:25.261Z,55.47
2023-04-10T17:59:31.219Z,56.00
2023-04-10T18:04:34.543Z,54.41
2023-04-10T18:09:37.989Z,55.43
2023-04-10T18:14:42.706Z,54.51
2023-04-10T18:19:45.910Z,55.11
2023-04-10T18:24:49.580Z,55.47
2023-04-10T18:29:57.642Z,55.90
2023-04-10T18:35:00.685Z,57.26
2023-04-10T18:40:15.512Z,57.38
2023-04-10T18:45:20.619Z,57.94
2023-04-10T18:50:23.622Z,57.15
2023-04-10T18:55:26.547Z,56.98
2023-04-10T19:00:29.632Z,56.94
2023-04-10T19:05:32.948Z,57.13
2023-04-10T19:10:37.719Z,57.50
2023-04-10T19:15:42.361Z,58.04
2023-04-10T19:20:48.844Z,59.06
2023-04-10T19:25:54.931Z,59.44
2023-04-10T19:30:58.354Z,61.42
2023-04-10T19:36:01.338Z,54.35
2023-04-10T19:41:13.629Z,56.30
2023-04-10T19:46:18.184Z,58.28
2023-04-10T19:51:21.629Z,60.48
2023-04-10T19:56:25.458Z,60.53
2023-04-10T20:01:28.590Z,66.49
2023-04-10T20:06:32.109Z,58.57
2023-04-10T20:11:35.169Z,56.33
2023-04-10T20:16:39.256Z,59.02
2023-04-10T20:21:42.322Z,60.00
2023-04-10T20:26:45.895Z,61.31
2023-04-10T20:31:49.044Z,67.60
2023-04-10T20:36:52.049Z,62.42
2023-04-10T20:41:55.050Z,54.47
2023-04-10T20:46:57.962Z,55.13
2023-04-10T20:52:01.059Z,55.54
2023-04-10T20:57:06.141Z,57.34
2023-04-10T21:02:09.223Z,66.36
2023-04-10T21:07:12.345Z,65.22
2023-04-10T21:12:15.342Z,59.08
2023-04-10T21:17:19.458Z,56.02
2023-04-10T21:22:22.691Z,58.61
2023-04-10T21:27:25.692Z,60.49
2023-04-10T21:32:30.040Z,60.95
2023-04-10T21:37:33.041Z,69.12
2023-04-10T21:42:39.584Z,64.85
2023-04-10T21:47:42.561Z,61.00
2023-04-10T21:52:45.754Z,57.47
2023-04-10T21:57:48.753Z,59.74
2023-04-10T22:02:52.023Z,66.23
2023-04-10T22:07:55.487Z,62.00
2023-04-10T22:12:58.584Z,56.70
2023-04-10T22:18:01.587Z,60.04
2023-04-10T22:23:05.119Z,66.38
2023-04-10T22:28:08.118Z,62.78
2023-04-10T22:33:12.158Z,59.70
2023-04-10T22:38:15.635Z,58.45
2023-04-10T22:43:18.581Z,65.43
2023-04-10T22:48:21.662Z,64.46
2023-04-10T22:53:24.791Z,60.31
2023-04-10T22:58:27.897Z,58.03
2023-04-10T23:03:30.909Z,64.85
2023-04-10T23:08:33.952Z,62.35
2023-04-10T23:13:36.814Z,61.02
2023-04-10T23:18:39.721Z,58.95
2023-04-10T23:23:42.834Z,59.44
2023-04-10T23:28:45.741Z,66.15
2023-04-10T23:33:48.861Z,63.65
2023-04-10T23:38:52.067Z,60.53
2023-04-10T23:43:55.168Z,60.25
2023-04-10T23:48:58.285Z,64.65
2023-04-10T23:54:01.280Z,64.33
2023-04-10T23:59:04.499Z,62.03
